Αρχική σελίδα
METAR-TAF:

METAR-TAF

Αεροδρόμια :

Ponca City, Οκλαχόμα, Ηνωμένες Πολιτείες Αμερικής

γεωγραφικό πλάτος: 36-43-50N, γεωγραφικό μήκος: 097-05-59W, υψόμετρο: 307 μ

Παρών καιρός

Η αναφορά έγινε 1 ώρα και 6 λεπτά πριν, στις 23:53 UTC
Άνεμος 3 kt από Ν
Θερμοκρασία 17°C
Υγρασία 48%
Πίεση 1022 hPa
Ορατότητα: 16.1 χλμ
Καθαρός ουρανός

METAR: KPNC 212353Z AUTO 17003KT 10SM CLR 17/06 A3017 RMK AO2 SLP213 T01670056 10217 20167 56013

Χρόνος: 19:59 (00:59 UTC)

Πρόγνωση Καιρού

Η αναφορά έγινε 1 ώρα και 32 λεπτά πριν, στις 23:27 UTC
Η πρόγνωση ισχύει από τις 22 στις 00 UTC έως τις 22 στις 24 UTC
Άνεμος 8 kt από Ν
Ορατότητα: 10 χλμ
Διάσπαρτα νέφη σε ύψος 12000 πόδια

TAF: KPNC 212327Z 2200/2224 18008KT P6SM SCT120

Μετεωρολογικές αναφορές και προγνώσεις για περισσότερα από 4000 αεροδρόμια (δελτία METAR και TAF).

Οι διαθέσιμοι σταθμοί απεικονίζονται στο χάρτη με κίτρινες και κόκκινες κουκκίδες.

Μετακινήστε το ποντίκι πάνω από τις κουκκίδες για να δείτε το όνομα του σταθμού.

Στη συνέχεια, κάντε κλικ για να δείτε τις μετεωρολογικές αναφορές και τις προγνώσεις καιρού.

Για να αλλάξετε το χάρτη: κάντε κλικ στα πράσινα κουμπιά με τον μαύρο σταυρό για να ζουμάρετε, στο πράσινο κουμπί με την παύλα για να αφαιρέσετε το ζουμ ή στα πράσινα βέλη για να αντιπαραβάλλετε χάρτες.


METAR-TAF: